createdAt,value
2023-01-08T00:01:22.367Z,96834.44
2023-01-08T00:11:25.641Z,96849.66
2023-01-08T00:21:29.227Z,96833.06
2023-01-08T00:31:31.480Z,96833.44
2023-01-08T00:41:33.803Z,96820.63
2023-01-08T00:51:36.004Z,96837.41
2023-01-08T01:01:38.627Z,96835.63
2023-01-08T01:11:41.134Z,96847.66
2023-01-08T01:21:44.140Z,96840.81
2023-01-08T01:31:46.310Z,96822.72
2023-01-08T01:41:48.882Z,96838.78
2023-01-08T01:51:55.484Z,96860.34
2023-01-08T02:01:58.292Z,96847.53
2023-01-08T02:12:17.401Z,96850.47
2023-01-08T02:23:01.279Z,96858.28
2023-01-08T02:33:03.507Z,96833.19
2023-01-08T02:43:08.491Z,96816.69
2023-01-08T02:53:33.741Z,96807.69
2023-01-08T03:03:38.777Z,96799.13
2023-01-08T03:14:05.690Z,96796.78
2023-01-08T03:24:09.104Z,96809.25
2023-01-08T03:34:13.818Z,96780.88
2023-01-08T03:44:16.523Z,96786.59
2023-01-08T03:54:23.975Z,96768.06
2023-01-08T04:04:26.239Z,96773.06
2023-01-08T04:14:28.545Z,96787.03
2023-01-08T04:24:30.725Z,96780.22
2023-01-08T04:34:32.997Z,96768.25
2023-01-08T04:44:35.217Z,96759.72
2023-01-08T04:54:37.407Z,96748.06
2023-01-08T05:04:39.666Z,96734.81
2023-01-08T05:14:41.849Z,96715.34
2023-01-08T05:24:44.039Z,96703.22
2023-01-08T05:34:46.683Z,96682.25
2023-01-08T05:44:48.866Z,96677.53
2023-01-08T05:54:51.224Z,96658.22
2023-01-08T06:04:53.413Z,96671.22
2023-01-08T06:14:55.609Z,96659.28
2023-01-08T06:24:57.869Z,96656.69
2023-01-08T06:35:00.059Z,96648.94
2023-01-08T06:45:02.250Z,96622.88
2023-01-08T06:55:06.201Z,96628.78
2023-01-08T07:05:08.713Z,96627.41
2023-01-08T07:15:11.276Z,96641.41
2023-01-08T07:25:13.590Z,96630.88
2023-01-08T07:52:08.184Z,96612.31
2023-01-08T08:02:13.272Z,96610.59
2023-01-08T08:12:15.670Z,96599.03
2023-01-08T08:22:17.936Z,96594.50
2023-01-08T08:32:20.137Z,96596.00
2023-01-08T08:42:22.372Z,96590.00
2023-01-08T08:52:24.630Z,96591.28
2023-01-08T09:02:27.013Z,96586.91
2023-01-08T09:12:29.545Z,96578.09
2023-01-08T09:22:32.059Z,96578.06
2023-01-08T09:32:34.371Z,96580.03
2023-01-08T09:42:36.780Z,96567.81
2023-01-08T09:52:39.376Z,96547.44
2023-01-08T10:02:42.255Z,96523.56
2023-01-08T10:12:45.553Z,96533.16
2023-01-08T10:22:49.049Z,96536.63
2023-01-08T10:32:54.877Z,96527.06
2023-01-08T10:43:08.700Z,96507.13
2023-01-08T10:53:25.343Z,96487.97
2023-01-08T11:03:31.931Z,96499.25
2023-01-08T11:13:34.188Z,96472.91
2023-01-08T11:23:36.612Z,96460.66
2023-01-08T11:33:40.585Z,96447.91
2023-01-08T11:44:01.216Z,96426.03
2023-01-08T11:54:07.251Z,96420.28
2023-01-08T12:04:28.074Z,96412.97
2023-01-08T12:14:51.567Z,96402.66
2023-01-08T12:25:23.371Z,96383.56
2023-01-08T12:35:32.234Z,96378.38
2023-01-08T12:45:48.363Z,96370.25
2023-01-08T12:56:05.315Z,96355.59
2023-01-08T13:06:14.997Z,96351.75
2023-01-08T13:16:22.003Z,96340.50
2023-01-08T13:26:30.856Z,96331.47
2023-01-08T13:36:33.172Z,96328.81
2023-01-08T13:46:39.015Z,96334.97
2023-01-08T13:56:43.583Z,96323.09
2023-01-08T14:06:45.836Z,96311.41
2023-01-08T14:16:49.883Z,96308.34
2023-01-08T14:26:57.680Z,96311.72
2023-01-08T14:36:59.896Z,96310.25
2023-01-08T14:47:02.280Z,96313.47
2023-01-08T14:57:04.912Z,96306.19
2023-01-08T15:07:25.537Z,96302.63
2023-01-08T15:17:28.931Z,96287.41
2023-01-08T15:27:37.872Z,96267.47
2023-01-08T15:37:41.958Z,96261.25
2023-01-08T15:47:44.155Z,96261.66
2023-01-08T15:57:46.800Z,96296.44
2023-01-08T16:07:49.161Z,96313.38
2023-01-08T16:17:51.711Z,96261.97
2023-01-08T16:27:53.998Z,96256.16
2023-01-08T16:37:56.703Z,96275.63
2023-01-08T16:47:58.978Z,96302.66
2023-01-08T16:58:01.276Z,96319.69
2023-01-08T17:08:03.804Z,96296.25
2023-01-08T17:18:06.237Z,96278.66
2023-01-08T17:28:08.437Z,96288.03
2023-01-08T17:38:11.231Z,96267.16
2023-01-08T17:48:13.584Z,96269.59
2023-01-08T17:58:15.847Z,96277.75
2023-01-08T18:08:18.090Z,96304.56
2023-01-08T18:18:20.335Z,96308.66
2023-01-08T18:28:22.717Z,96321.41
2023-01-08T18:38:24.934Z,96291.44
2023-01-08T18:48:28.174Z,96252.88
2023-01-08T18:58:30.548Z,96236.94
2023-01-08T19:08:32.757Z,96213.66
2023-01-08T19:18:35.083Z,96199.63
2023-01-08T19:28:37.378Z,96181.47
2023-01-08T19:38:40.311Z,96135.44
2023-01-08T19:48:44.207Z,96127.69
2023-01-08T19:58:46.669Z,96131.44
2023-01-08T20:08:51.005Z,96151.25
2023-01-08T20:18:58.382Z,96117.72
2023-01-08T20:29:00.647Z,96124.44
2023-01-08T20:39:09.966Z,96103.72
2023-01-08T20:49:13.642Z,96104.22
2023-01-08T20:59:17.231Z,96091.53
2023-01-08T21:09:19.414Z,96076.72
2023-01-08T21:19:21.660Z,96081.69
2023-01-08T21:29:24.964Z,96035.63
2023-01-08T21:40:12.251Z,96035.75
2023-01-08T21:50:14.509Z,96051.97
2023-01-08T22:00:17.537Z,96047.88
2023-01-08T22:10:20.042Z,96033.84
2023-01-08T22:20:22.247Z,96030.47
2023-01-08T22:30:24.533Z,96024.91
2023-01-08T22:40:26.756Z,95994.44
2023-01-08T22:50:28.951Z,95998.13
2023-01-08T23:00:31.205Z,95973.94
2023-01-08T23:10:33.728Z,95976.97
2023-01-08T23:20:36.158Z,95969.88
2023-01-08T23:30:40.719Z,95963.50
2023-01-08T23:40:46.246Z,95949.28
2023-01-08T23:50:48.420Z,95962.59
